EGDX

MOD St. Athan Airport

St. Athan, United Kingdom
METAR EGDX 192350Z AUTO 28005KT 2400 RA FEW003/// BKN008/// 12/12 Q1012
Observed Flight Rules
Sep-19 @ 23:50 UTC (52 minutes ago) Instrument Flight Rules
Wind Visibility Clouds Conditions
280° at 5 knots 2,398 meters
  • Few at 300' AGL
  • Broken at 800' AGL
  • Rain
Temperatures Readings
Current 12°C / 54°F
Dewpoint 12°C / 54°F
Humidity 100%
Altimeter 29.88" Hg
Pressure 1012 hPa
Elevation 50
METAR EGDX 192350Z AUTO 28005KT 2400 RA FEW003/// BKN008/// 12/12 Q1012
Observed Flight Rules
Sep-19 @ 23:50 UTC
(52 minutes ago)
IFR
Wind Visibility
280° at 5 knots 2,398 meters
Clouds
  • Few at 300' AGL
  • Broken at 800' AGL
Conditions
  • Rain
Temperature Dewpoint
12°C / 54°F 12°C / 54°F
Humidity Altimeter Pressure
100% 29.88" Hg 1012 hPa